Time;durP1;ratioP1;P1;durP2;ratioP2;P2;SDS_P1;SDS_P2;PMS_P1;PMS_P2;Temp;Humidity;BMP_temperature;BMP_pressure;BME280_temperature;BME280_humidity;BME280_pressure;Samples;Min_cycle;Max_cycle;Signal;HPM_P1;HPM_P2
2021/01/20 00:00:10;;;;;;;4.80;1.80;;;4.90;88.90;;;;;;4969847;29;20058;-82
2021/01/20 00:02:38;;;;;;;4.03;1.60;;;4.80;88.30;;;;;;4970147;29;20055;-82
2021/01/20 00:05:08;;;;;;;3.42;1.60;;;4.50;89.20;;;;;;4973070;29;20048;-82
2021/01/20 00:07:35;;;;;;;4.57;2.15;;;4.50;90.40;;;;;;4972102;28;20535;-82
2021/01/20 00:10:02;;;;;;;4.55;1.83;;;4.30;90.20;;;;;;4973917;28;20047;-82
2021/01/20 00:12:29;;;;;;;4.22;1.63;;;4.30;90.80;;;;;;4968409;29;20062;-82
2021/01/20 00:14:57;;;;;;;4.30;1.73;;;4.30;91.00;;;;;;4968291;28;20051;-82
2021/01/20 00:17:24;;;;;;;4.15;1.70;;;4.40;91.00;;;;;;4968375;28;20066;-81
2021/01/20 00:19:51;;;;;;;3.00;1.30;;;4.30;90.90;;;;;;4977452;28;20047;-83
2021/01/20 00:22:18;;;;;;;6.57;2.60;;;4.30;90.90;;;;;;4976037;28;20035;-83
2021/01/20 00:24:44;;;;;;;3.45;1.65;;;4.50;90.50;;;;;;4978290;28;20066;-83
2021/01/20 00:27:12;;;;;;;4.53;1.88;;;4.60;90.70;;;;;;4979736;29;20035;-82
2021/01/20 00:29:39;;;;;;;5.07;2.40;;;4.50;90.10;;;;;;4964750;28;20038;-82
2021/01/20 00:32:07;;;;;;;2.47;1.15;;;4.30;90.70;;;;;;4977312;28;20048;-82
2021/01/20 00:34:34;;;;;;;3.33;1.73;;;4.30;91.50;;;;;;4977865;28;20059;-83
2021/01/20 00:37:01;;;;;;;4.50;1.88;;;4.50;91.60;;;;;;4981140;28;20039;-83
2021/01/20 00:39:28;;;;;;;3.47;1.55;;;4.50;91.00;;;;;;4963982;28;20055;-82
2021/01/20 00:41:55;;;;;;;4.05;1.67;;;4.40;91.00;;;;;;4939017;29;20051;-81
2021/01/20 00:44:22;;;;;;;2.90;1.50;;;4.30;91.50;;;;;;4970566;29;20051;-81
2021/01/20 00:46:49;;;;;;;4.38;1.80;;;4.20;91.60;;;;;;4965126;29;20527;-81
2021/01/20 00:49:17;;;;;;;4.10;1.92;;;4.20;91.50;;;;;;4969484;29;20059;-81
2021/01/20 00:51:43;;;;;;;3.40;1.40;;;4.30;91.40;;;;;;4956133;29;20051;-81
2021/01/20 00:54:10;;;;;;;4.45;1.80;;;4.40;91.50;;;;;;4965726;29;20127;-82
2021/01/20 00:56:37;;;;;;;3.72;1.30;;;4.40;91.30;;;;;;4967713;29;20521;-81
2021/01/20 00:59:06;;;;;;;3.03;1.30;;;4.50;91.30;;;;;;4970234;29;20071;-82
2021/01/20 01:01:32;;;;;;;4.38;1.70;;;4.60;91.20;;;;;;4970091;29;20058;-81
2021/01/20 01:03:59;;;;;;;4.53;1.80;;;4.70;90.80;;;;;;4961973;28;20039;-82
2021/01/20 01:06:27;;;;;;;4.82;2.03;;;4.70;90.50;;;;;;4963738;28;20051;-83
2021/01/20 01:11:43;;;;;;;5.13;1.75;;;4.10;91.20;;;;;;4932945;29;20055;-81
2021/01/20 01:14:13;;;;;;;4.63;1.90;;;3.90;91.80;;;;;;4947278;29;20098;-81
2021/01/20 01:16:41;;;;;;;6.07;2.00;;;3.90;92.20;;;;;;4970282;29;20062;-81
2021/01/20 01:19:08;;;;;;;3.97;1.58;;;3.90;92.60;;;;;;4949164;29;20082;-81
2021/01/20 01:21:36;;;;;;;3.78;1.77;;;3.90;92.70;;;;;;4950428;29;20082;-82
2021/01/20 01:24:03;;;;;;;5.13;2.17;;;3.80;92.80;;;;;;4953721;29;20063;-82
2021/01/20 01:26:30;;;;;;;4.32;2.10;;;3.90;92.40;;;;;;4970233;28;20090;-81
2021/01/20 01:28:57;;;;;;;5.53;2.90;;;3.90;92.20;;;;;;4968047;28;20051;-82
2021/01/20 01:31:24;;;;;;;5.18;2.50;;;3.90;92.20;;;;;;4947687;29;20094;-82
2021/01/20 01:33:51;;;;;;;5.72;2.42;;;3.90;92.20;;;;;;4946216;29;20090;-81
2021/01/20 01:36:18;;;;;;;5.45;2.25;;;3.90;92.00;;;;;;4962162;29;20106;-82
2021/01/20 01:38:46;;;;;;;4.55;1.90;;;4.00;92.30;;;;;;4979001;28;20066;-82
2021/01/20 01:41:13;;;;;;;3.70;1.83;;;3.70;92.70;;;;;;4948249;29;20039;-83
2021/01/20 01:43:40;;;;;;;4.63;2.13;;;3.70;92.60;;;;;;4980939;28;20066;-82
2021/01/20 01:50:02;;;;;;;4.85;2.38;;;3.90;92.20;;;;;;4980294;28;20031;-83
2021/01/20 01:52:30;;;;;;;4.90;2.10;;;3.80;92.40;;;;;;4979408;28;20055;-82
2021/01/20 01:54:58;;;;;;;4.15;2.10;;;3.60;92.50;;;;;;4964672;28;20051;-83
2021/01/20 01:57:25;;;;;;;5.28;1.80;;;3.60;92.60;;;;;;4963085;29;20047;-83
2021/01/20 01:59:53;;;;;;;4.88;1.92;;;3.60;92.80;;;;;;4964225;28;20027;-83
2021/01/20 02:02:21;;;;;;;4.10;1.83;;;3.50;92.60;;;;;;4980609;28;20050;-84
2021/01/20 02:04:48;;;;;;;3.75;1.75;;;3.70;92.80;;;;;;4980365;28;20092;-83
2021/01/20 02:07:15;;;;;;;4.13;1.95;;;3.50;93.00;;;;;;4975394;29;20051;-83
2021/01/20 02:09:56;;;;;;;3.58;1.58;;;3.50;92.90;;;;;;4960792;29;20055;-83
2021/01/20 02:12:42;;;;;;;3.55;1.70;;;3.60;93.00;;;;;;4949664;28;20051;-83
2021/01/20 02:15:32;;;;;;;3.90;1.70;;;3.60;93.00;;;;;;4977298;28;20110;-82
2021/01/20 02:18:03;;;;;;;3.63;1.60;;;3.70;93.10;;;;;;4971908;29;20409;-83
2021/01/20 02:21:22;;;;;;;4.53;1.83;;;3.80;93.10;;;;;;4975517;28;20035;-82
2021/01/20 02:23:51;;;;;;;4.55;2.20;;;3.60;93.10;;;;;;4957483;29;20031;-83
2021/01/20 02:26:27;;;;;;;3.78;2.03;;;3.70;92.90;;;;;;4977929;29;20043;-83
2021/01/20 02:29:31;;;;;;;4.78;2.25;;;3.70;92.90;;;;;;4971659;29;20060;-82
2021/01/20 02:32:02;;;;;;;5.78;2.38;;;3.80;93.00;;;;;;4961672;29;20047;-84
2021/01/20 02:34:32;;;;;;;5.43;2.17;;;3.70;93.10;;;;;;4978912;28;20047;-83
2021/01/20 02:37:00;;;;;;;4.25;2.03;;;3.70;93.20;;;;;;4979557;28;20040;-82
2021/01/20 02:39:29;;;;;;;4.47;2.10;;;3.50;93.30;;;;;;4956049;29;20058;-82
2021/01/20 02:42:03;;;;;;;4.47;2.47;;;3.50;93.40;;;;;;4972617;28;20489;-82
2021/01/20 02:44:30;;;;;;;4.60;2.05;;;3.40;93.60;;;;;;4966734;28;20051;-82
2021/01/20 02:46:58;;;;;;;4.32;2.35;;;3.40;93.70;;;;;;4963230;29;20086;-81
2021/01/20 02:49:25;;;;;;;4.30;1.90;;;3.40;93.70;;;;;;4963000;28;20130;-82
2021/01/20 02:51:58;;;;;;;5.05;2.03;;;3.40;93.60;;;;;;4947046;29;20083;-82
2021/01/20 02:54:27;;;;;;;4.95;2.53;;;3.50;93.50;;;;;;4963127;28;20054;-82
2021/01/20 02:56:55;;;;;;;4.05;2.00;;;3.40;93.40;;;;;;4960717;29;20078;-82
2021/01/20 02:59:24;;;;;;;4.25;2.25;;;3.50;93.40;;;;;;4949687;29;20114;-83
2021/01/20 03:02:29;;;;;;;4.80;2.30;;;3.40;93.30;;;;;;4976431;29;20074;-83
2021/01/20 03:04:59;;;;;;;4.55;2.00;;;3.50;93.30;;;;;;4977534;29;20047;-83
2021/01/20 03:07:27;;;;;;;5.32;2.38;;;3.60;93.20;;;;;;4978655;28;20054;-83
2021/01/20 03:09:55;;;;;;;5.60;2.38;;;3.60;93.00;;;;;;4980001;28;20028;-83
2021/01/20 03:12:26;;;;;;;6.60;2.95;;;3.60;93.00;;;;;;4975271;29;20057;-82
2021/01/20 03:14:55;;;;;;;5.32;2.38;;;3.50;93.00;;;;;;4963962;28;20062;-82
2021/01/20 03:17:22;;;;;;;5.10;2.30;;;3.50;93.00;;;;;;4980454;28;20031;-82
2021/01/20 03:19:49;;;;;;;4.50;2.13;;;3.50;93.10;;;;;;4980303;28;20116;-83
2021/01/20 03:22:16;;;;;;;5.18;2.33;;;3.40;93.20;;;;;;4947195;28;20047;-83
2021/01/20 03:24:46;;;;;;;4.85;2.55;;;3.40;93.30;;;;;;4973859;29;20114;-82
2021/01/20 03:27:14;;;;;;;4.75;2.00;;;3.30;93.30;;;;;;4973150;29;20136;-83
2021/01/20 03:29:40;;;;;;;5.53;2.30;;;3.20;93.60;;;;;;4945691;29;20082;-81
2021/01/20 03:32:07;;;;;;;5.43;2.20;;;3.00;93.70;;;;;;4977527;29;20055;-82
2021/01/20 03:34:35;;;;;;;3.75;1.90;;;2.90;94.20;;;;;;4979542;29;20082;-84
2021/01/20 03:37:03;;;;;;;4.40;2.05;;;2.80;94.60;;;;;;4977884;29;20062;-83
2021/01/20 03:39:30;;;;;;;3.70;1.83;;;2.80;94.70;;;;;;4944058;29;20469;-81
2021/01/20 03:41:57;;;;;;;5.13;2.25;;;2.70;94.70;;;;;;4976870;29;20075;-82
2021/01/20 03:47:05;;;;;;;4.40;2.10;;;2.60;94.90;;;;;;4959832;29;20058;-83
2021/01/20 03:49:31;;;;;;;4.88;2.10;;;2.50;95.30;;;;;;4978269;28;20489;-83
2021/01/20 03:51:58;;;;;;;5.07;2.10;;;2.50;95.30;;;;;;4947022;28;20098;-81
2021/01/20 03:54:25;;;;;;;4.53;2.15;;;2.60;95.20;;;;;;4963380;29;20055;-82
2021/01/20 03:56:52;;;;;;;5.18;2.40;;;2.70;95.00;;;;;;4980333;29;20485;-83
2021/01/20 04:02:40;;;;;;;4.10;2.05;;;2.50;95.20;;;;;;4964820;29;20051;-83
2021/01/20 04:05:09;;;;;;;4.18;1.98;;;2.50;95.30;;;;;;4973428;29;20075;-82
2021/01/20 04:07:35;;;;;;;5.55;2.13;;;2.60;95.20;;;;;;4968383;29;20126;-82
2021/01/20 04:10:07;;;;;;;4.60;2.08;;;2.70;95.10;;;;;;4950014;29;20416;-82
2021/01/20 04:12:38;;;;;;;5.15;2.08;;;2.80;94.80;;;;;;4969873;29;20121;-82
2021/01/20 04:15:07;;;;;;;6.50;2.08;;;2.80;94.80;;;;;;4967534;29;20062;-81
2021/01/20 04:17:42;;;;;;;4.93;2.70;;;2.80;94.50;;;;;;4970832;29;20118;-83
2021/01/20 04:20:10;;;;;;;5.60;2.28;;;2.90;94.50;;;;;;4921642;29;20086;-82
2021/01/20 04:22:40;;;;;;;4.28;2.25;;;2.80;94.40;;;;;;4968863;29;20134;-82
2021/01/20 04:25:11;;;;;;;4.32;2.15;;;2.80;94.50;;;;;;4968388;29;20093;-82
2021/01/20 04:27:38;;;;;;;4.13;2.10;;;2.80;94.70;;;;;;4969153;29;20051;-81
2021/01/20 04:30:07;;;;;;;4.43;1.98;;;2.80;94.60;;;;;;4947317;29;20138;-82
2021/01/20 04:32:33;;;;;;;5.63;2.28;;;2.90;94.50;;;;;;4965613;29;20551;-81
2021/01/20 04:35:01;;;;;;;3.78;2.05;;;3.00;94.30;;;;;;4947114;29;20211;-82
2021/01/20 04:37:28;;;;;;;4.05;2.10;;;3.00;94.10;;;;;;4946738;29;20055;-82
2021/01/20 04:39:55;;;;;;;4.65;2.08;;;3.00;94.10;;;;;;4948087;29;20087;-82
2021/01/20 04:42:22;;;;;;;4.88;2.40;;;3.00;94.00;;;;;;4964578;29;20082;-82
2021/01/20 04:44:49;;;;;;;4.45;2.10;;;3.00;93.90;;;;;;4947798;29;20058;-82
2021/01/20 04:47:16;;;;;;;5.60;1.90;;;3.00;94.00;;;;;;4958426;29;20070;-82
2021/01/20 04:49:46;;;;;;;4.85;2.00;;;2.90;94.00;;;;;;4974315;29;20085;-82
2021/01/20 04:52:19;;;;;;;5.70;2.40;;;3.00;93.90;;;;;;4977879;29;20063;-83
2021/01/20 04:54:47;;;;;;;4.18;2.08;;;3.00;93.90;;;;;;4981332;28;20062;-83
2021/01/20 04:57:14;;;;;;;4.88;2.38;;;3.00;93.90;;;;;;4981872;28;20055;-83
2021/01/20 04:59:44;;;;;;;4.65;2.13;;;3.00;94.00;;;;;;4980207;28;20070;-82
2021/01/20 05:02:12;;;;;;;4.53;2.15;;;2.90;94.10;;;;;;4982145;28;20058;-83
2021/01/20 05:04:39;;;;;;;4.50;2.10;;;2.90;94.10;;;;;;4982169;28;20054;-83
2021/01/20 05:07:07;;;;;;;4.53;2.05;;;3.00;94.20;;;;;;4982160;28;20027;-81
2021/01/20 05:09:35;;;;;;;4.97;2.30;;;3.00;94.20;;;;;;4966096;28;20027;-82
2021/01/20 05:12:02;;;;;;;3.80;1.90;;;3.00;94.20;;;;;;4980377;28;20075;-82
2021/01/20 05:14:28;;;;;;;4.55;2.40;;;3.10;94.10;;;;;;4949285;29;20192;-80
2021/01/20 05:17:07;;;;;;;4.47;2.10;;;3.10;94.00;;;;;;4943821;29;20047;-81
2021/01/20 05:19:36;;;;;;;4.65;1.77;;;3.10;94.00;;;;;;4961621;29;20058;-81
2021/01/20 05:22:05;;;;;;;5.68;1.92;;;3.20;94.00;;;;;;4958632;29;20063;-81
2021/01/20 05:24:33;;;;;;;4.75;1.98;;;3.20;94.00;;;;;;4971176;29;20109;-83
2021/01/20 05:27:01;;;;;;;6.18;2.00;;;3.30;93.60;;;;;;4973961;29;20066;-83
2021/01/20 05:29:32;;;;;;;4.53;1.98;;;3.40;93.40;;;;;;4964008;28;20526;-82
2021/01/20 05:32:16;;;;;;;4.95;1.92;;;3.50;93.20;;;;;;4977961;28;20067;-80
2021/01/20 05:34:42;;;;;;;4.03;2.00;;;3.60;92.90;;;;;;4974112;28;20082;-82
2021/01/20 05:37:11;;;;;;;4.57;1.88;;;3.60;92.70;;;;;;4973016;29;20106;-81
2021/01/20 05:39:39;;;;;;;4.68;1.90;;;3.70;92.30;;;;;;4957295;29;20035;-82
2021/01/20 05:42:13;;;;;;;5.32;2.00;;;3.70;92.00;;;;;;4974580;29;20082;-83
2021/01/20 05:45:12;;;;;;;4.90;2.08;;;3.80;92.20;;;;;;4973876;29;20134;-83
2021/01/20 05:48:07;;;;;;;5.10;2.30;;;3.80;92.10;;;;;;4974342;29;20051;-82
2021/01/20 05:50:36;;;;;;;5.03;2.03;;;3.80;92.40;;;;;;4972851;29;20071;-83
2021/01/20 05:53:05;;;;;;;4.25;2.13;;;3.80;92.50;;;;;;4973157;29;20090;-82
2021/01/20 05:55:32;;;;;;;3.78;1.70;;;3.70;92.70;;;;;;4973345;29;20078;-81
2021/01/20 05:57:58;;;;;;;4.35;1.80;;;3.70;92.80;;;;;;4952246;29;20103;-82
2021/01/20 06:00:25;;;;;;;4.65;2.00;;;3.40;93.00;;;;;;4952891;29;20047;-82
2021/01/20 06:02:55;;;;;;;3.70;2.10;;;3.40;93.10;;;;;;4955135;29;20050;-83
2021/01/20 06:05:23;;;;;;;4.85;2.13;;;3.40;93.20;;;;;;4956445;29;20052;-81
2021/01/20 06:07:58;;;;;;;3.92;1.88;;;3.40;92.70;;;;;;4974026;29;20078;-82
2021/01/20 06:10:25;;;;;;;5.55;2.00;;;3.50;92.90;;;;;;4971730;29;20052;-82
2021/01/20 06:12:54;;;;;;;4.65;1.90;;;3.60;93.10;;;;;;4951964;29;20143;-82
2021/01/20 06:15:21;;;;;;;4.82;2.00;;;3.50;93.20;;;;;;4937266;29;20052;-83
2021/01/20 06:17:51;;;;;;;4.10;2.05;;;3.40;93.30;;;;;;4973120;29;20062;-81
2021/01/20 06:20:23;;;;;;;5.75;1.90;;;3.40;93.30;;;;;;4972299;29;20126;-82
2021/01/20 06:22:53;;;;;;;4.45;2.00;;;3.30;92.40;;;;;;4973104;29;20110;-82
2021/01/20 06:25:27;;;;;;;5.25;2.10;;;3.50;92.80;;;;;;4973966;29;20051;-82
2021/01/20 06:27:57;;;;;;;4.43;2.15;;;3.60;91.90;;;;;;4967677;29;20086;-82
2021/01/20 06:30:29;;;;;;;4.55;1.80;;;3.70;91.90;;;;;;4965105;28;20051;-81
2021/01/20 06:32:57;;;;;;;4.60;1.88;;;3.70;91.70;;;;;;4968163;29;20058;-82
2021/01/20 06:35:38;;;;;;;4.47;2.05;;;3.70;91.30;;;;;;4969355;29;20190;-81
2021/01/20 06:38:05;;;;;;;4.70;2.13;;;3.90;91.50;;;;;;4970744;29;20134;-82
2021/01/20 06:40:50;;;;;;;4.57;2.30;;;3.90;91.30;;;;;;4968452;29;20098;-82
2021/01/20 06:43:39;;;;;;;4.88;2.45;;;3.90;90.80;;;;;;4969251;29;20071;-81
2021/01/20 06:46:27;;;;;;;4.55;1.80;;;3.80;90.30;;;;;;4967135;29;20070;-81
2021/01/20 06:49:10;;;;;;;5.20;1.83;;;4.00;90.10;;;;;;4966150;28;20051;-81
2021/01/20 06:51:39;;;;;;;5.00;2.67;;;4.20;90.10;;;;;;4967985;29;20115;-81
2021/01/20 06:54:10;;;;;;;4.15;1.95;;;4.10;89.20;;;;;;4967333;29;20085;-81
2021/01/20 06:56:43;;;;;;;5.63;2.15;;;4.20;88.70;;;;;;4968429;29;20052;-81
2021/01/20 06:59:21;;;;;;;4.28;1.85;;;4.30;87.60;;;;;;4971127;29;20119;-81
2021/01/20 07:02:13;;;;;;;6.43;2.20;;;4.40;87.20;;;;;;4971048;29;20055;-82
2021/01/20 07:05:03;;;;;;;4.32;2.13;;;4.40;86.80;;;;;;4969680;28;20081;-82
2021/01/20 07:08:06;;;;;;;4.50;2.67;;;4.60;85.90;;;;;;4966619;28;20087;-82
2021/01/20 07:11:03;;;;;;;4.10;1.70;;;4.70;85.00;;;;;;4970244;29;20075;-82
2021/01/20 07:13:41;;;;;;;4.53;2.00;;;4.80;84.00;;;;;;4969530;29;20078;-82
2021/01/20 07:16:12;;;;;;;4.40;2.10;;;4.80;84.50;;;;;;4971496;29;20055;-81
2021/01/20 07:18:42;;;;;;;4.72;2.50;;;5.00;86.40;;;;;;4972464;29;20085;-81
2021/01/20 07:21:14;;;;;;;6.20;2.90;;;4.90;86.60;;;;;;4972694;29;20053;-82
2021/01/20 07:23:41;;;;;;;6.45;3.25;;;4.70;87.00;;;;;;4975770;28;20146;-82
2021/01/20 07:26:17;;;;;;;6.47;2.90;;;4.60;87.70;;;;;;4978929;28;20078;-82
2021/01/20 07:28:47;;;;;;;7.60;2.90;;;4.50;88.30;;;;;;4982275;28;20054;-80
2021/01/20 07:31:21;;;;;;;5.72;3.20;;;4.50;89.00;;;;;;4982993;28;20059;-82
2021/01/20 07:33:51;;;;;;;7.78;2.80;;;4.40;89.20;;;;;;4983612;28;20055;-83
2021/01/20 07:36:21;;;;;;;5.28;2.53;;;4.40;89.10;;;;;;4983388;28;20095;-83
2021/01/20 07:38:49;;;;;;;5.97;2.80;;;4.40;89.20;;;;;;4982452;28;20027;-82
2021/01/20 07:41:20;;;;;;;6.38;2.90;;;4.30;89.00;;;;;;4978431;28;20052;-80
2021/01/20 07:43:49;;;;;;;5.10;2.42;;;4.30;89.30;;;;;;4977542;29;20058;-81
2021/01/20 07:46:22;;;;;;;5.57;2.90;;;4.20;89.00;;;;;;4981295;29;20047;-82
2021/01/20 07:48:49;;;;;;;5.95;2.70;;;4.30;89.30;;;;;;4965826;29;20086;-83
2021/01/20 07:51:21;;;;;;;4.60;2.40;;;4.30;89.00;;;;;;4982491;28;20059;-82
2021/01/20 07:54:03;;;;;;;6.20;2.80;;;4.30;89.00;;;;;;4966705;29;20083;-81
2021/01/20 07:56:33;;;;;;;4.78;2.75;;;4.10;89.90;;;;;;4981176;29;20059;-82
2021/01/20 07:59:16;;;;;;;6.55;2.80;;;4.20;89.30;;;;;;4966186;29;20082;-83
2021/01/20 08:01:43;;;;;;;4.38;2.30;;;4.30;89.10;;;;;;4982501;28;20058;-83
2021/01/20 08:04:21;;;;;;;6.03;2.38;;;4.30;88.50;;;;;;4949111;29;20114;-81
2021/01/20 08:06:48;;;;;;;5.25;2.50;;;4.30;88.20;;;;;;4981265;28;20094;-81
2021/01/20 08:09:15;;;;;;;5.18;2.72;;;4.40;88.20;;;;;;4980878;29;20063;-82
2021/01/20 08:11:46;;;;;;;6.47;3.33;;;4.50;88.50;;;;;;4962435;29;20140;-82
2021/01/20 08:14:14;;;;;;;5.00;2.90;;;4.30;89.00;;;;;;4979930;29;20074;-82
2021/01/20 08:16:41;;;;;;;5.57;3.03;;;4.20;89.50;;;;;;4980510;29;20075;-81
2021/01/20 08:19:08;;;;;;;5.78;2.72;;;4.20;89.70;;;;;;4975521;29;20082;-81
2021/01/20 08:21:35;;;;;;;4.80;2.88;;;4.30;89.30;;;;;;4936146;29;20054;-81
2021/01/20 08:24:07;;;;;;;6.53;3.33;;;4.30;89.40;;;;;;4971951;29;20093;-82
2021/01/20 08:26:34;;;;;;;6.43;3.15;;;4.30;89.80;;;;;;4965425;28;20055;-81
2021/01/20 08:29:10;;;;;;;6.28;3.53;;;4.30;90.00;;;;;;4980773;28;20047;-80
2021/01/20 08:31:39;;;;;;;6.78;3.22;;;4.30;89.60;;;;;;4965092;28;20035;-81
2021/01/20 08:34:23;;;;;;;6.68;3.60;;;4.40;89.30;;;;;;4981421;28;20054;-80
2021/01/20 08:37:01;;;;;;;9.75;4.57;;;4.40;89.10;;;;;;4973323;29;20147;-81
2021/01/20 08:39:29;;;;;;;6.75;3.17;;;4.60;88.80;;;;;;4963918;29;20058;-81
2021/01/20 08:42:16;;;;;;;6.03;3.10;;;4.60;88.20;;;;;;4966332;29;20078;-82
2021/01/20 08:45:07;;;;;;;6.82;3.28;;;4.70;87.70;;;;;;4966060;28;20107;-81
2021/01/20 08:47:34;;;;;;;7.13;3.92;;;4.70;87.80;;;;;;4966437;29;20094;-81
2021/01/20 08:50:02;;;;;;;6.03;3.08;;;4.70;88.00;;;;;;4967316;29;20134;-81
2021/01/20 08:52:46;;;;;;;7.00;3.15;;;4.70;87.90;;;;;;4948713;29;20051;-80
2021/01/20 08:55:24;;;;;;;6.13;3.03;;;4.80;88.90;;;;;;4966420;29;20141;-81
2021/01/20 08:58:32;;;;;;;6.07;3.42;;;4.70;89.90;;;;;;4966269;29;20106;-81
2021/01/20 09:01:02;;;;;;;6.45;3.50;;;4.80;87.70;;;;;;4925394;29;20047;-81
2021/01/20 09:03:32;;;;;;;7.30;3.78;;;4.80;87.10;;;;;;4950398;29;20047;-81
2021/01/20 09:06:01;;;;;;;8.55;3.90;;;4.80;87.30;;;;;;4950793;29;20119;-81
2021/01/20 09:08:32;;;;;;;5.80;3.22;;;4.80;87.80;;;;;;4965748;29;20051;-81
2021/01/20 09:11:00;;;;;;;7.72;3.70;;;4.90;88.90;;;;;;4965917;29;20036;-81
2021/01/20 09:13:27;;;;;;;6.10;3.60;;;4.90;88.40;;;;;;4964422;28;20066;-81
2021/01/20 09:15:55;;;;;;;6.75;3.38;;;4.80;88.40;;;;;;4947792;29;20059;-82
2021/01/20 09:18:24;;;;;;;7.00;3.60;;;4.80;88.70;;;;;;4946890;29;20051;-81
2021/01/20 09:20:52;;;;;;;8.15;3.90;;;4.80;89.40;;;;;;4974223;29;20058;-82
2021/01/20 09:23:21;;;;;;;7.50;3.60;;;4.80;88.90;;;;;;4964656;28;20114;-81
2021/01/20 09:25:49;;;;;;;7.65;3.85;;;4.70;89.80;;;;;;4973938;29;20051;-81
2021/01/20 09:28:16;;;;;;;7.15;3.83;;;4.70;89.10;;;;;;4965549;29;20138;-81
2021/01/20 09:30:43;;;;;;;7.70;3.92;;;4.70;89.40;;;;;;4950676;29;20078;-82
2021/01/20 09:33:10;;;;;;;6.50;3.80;;;4.80;89.70;;;;;;4965387;29;20047;-81
2021/01/20 09:35:38;;;;;;;8.30;3.85;;;4.70;88.70;;;;;;4946422;29;20050;-81
2021/01/20 09:38:06;;;;;;;7.05;3.88;;;4.70;88.40;;;;;;4963669;29;20138;-81
2021/01/20 09:40:33;;;;;;;5.97;3.33;;;4.80;88.50;;;;;;4946838;29;20134;-81
2021/01/20 09:43:03;;;;;;;7.03;4.05;;;4.90;87.90;;;;;;4968301;29;20071;-81
2021/01/20 09:45:31;;;;;;;6.82;4.15;;;5.00;88.10;;;;;;4964799;29;20058;-81
2021/01/20 09:47:59;;;;;;;8.30;3.83;;;4.90;88.00;;;;;;4947929;29;20047;-81
2021/01/20 09:50:27;;;;;;;8.98;4.30;;;5.10;88.70;;;;;;4965588;29;20115;-82
2021/01/20 09:52:54;;;;;;;7.80;4.03;;;5.10;89.00;;;;;;4950490;29;20139;-80
2021/01/20 09:58:03;;;;;;;7.05;3.78;;;5.10;87.30;;;;;;4967000;29;20054;-81
2021/01/20 10:00:30;;;;;;;6.95;3.75;;;5.10;87.10;;;;;;4966781;29;20094;-81
2021/01/20 10:03:00;;;;;;;6.15;3.45;;;5.20;86.70;;;;;;4967580;29;20115;-81
2021/01/20 10:05:26;;;;;;;8.20;4.07;;;5.30;86.50;;;;;;4950737;29;20466;-82
2021/01/20 10:07:54;;;;;;;6.38;3.72;;;5.40;85.80;;;;;;4967724;29;20102;-81
2021/01/20 10:10:21;;;;;;;8.77;4.07;;;5.50;84.00;;;;;;4965736;29;20126;-81
2021/01/20 10:12:48;;;;;;;7.80;4.00;;;5.60;84.00;;;;;;4967268;28;20047;-82
2021/01/20 10:15:15;;;;;;;8.10;4.07;;;5.70;83.60;;;;;;4949385;29;20047;-82
2021/01/20 10:17:41;;;;;;;7.22;3.60;;;5.90;83.00;;;;;;4947613;29;20150;-80
2021/01/20 10:20:10;;;;;;;7.43;4.30;;;6.00;83.40;;;;;;4965423;29;20075;-81
2021/01/20 10:22:39;;;;;;;6.80;3.90;;;6.10;82.80;;;;;;4965822;29;20078;-81
2021/01/20 10:25:08;;;;;;;8.02;3.80;;;6.20;81.40;;;;;;4966796;29;20112;-80
2021/01/20 10:27:37;;;;;;;7.15;3.95;;;6.30;80.60;;;;;;4949658;29;20081;-82
2021/01/20 10:30:08;;;;;;;8.82;4.10;;;6.40;80.30;;;;;;4964350;28;20083;-82
2021/01/20 10:32:35;;;;;;;8.15;4.35;;;6.50;80.50;;;;;;4964180;29;20123;-81
2021/01/20 10:35:08;;;;;;;6.93;4.05;;;6.60;82.00;;;;;;4959588;28;20071;-82
2021/01/20 10:37:35;;;;;;;7.38;3.55;;;6.60;83.70;;;;;;4960170;28;20051;-80
2021/01/20 10:40:01;;;;;;;9.10;4.55;;;6.70;83.90;;;;;;4954488;29;20138;-81
2021/01/20 10:42:29;;;;;;;6.85;4.10;;;6.60;86.80;;;;;;4974937;29;20051;-79
2021/01/20 10:44:56;;;;;;;9.20;4.03;;;6.60;85.40;;;;;;4974781;29;20079;-79
2021/01/20 10:47:23;;;;;;;8.82;4.70;;;6.70;85.70;;;;;;4956715;29;20102;-81
2021/01/20 10:49:49;;;;;;;9.10;5.00;;;6.60;88.30;;;;;;4968236;29;20074;-82
2021/01/20 10:52:16;;;;;;;10.35;5.40;;;6.60;88.90;;;;;;4952074;29;20416;-81
2021/01/20 10:54:43;;;;;;;7.85;4.30;;;6.70;88.90;;;;;;4951623;29;20093;-81
2021/01/20 10:57:09;;;;;;;8.18;4.25;;;6.70;88.10;;;;;;4967381;29;20047;-81
2021/01/20 10:59:41;;;;;;;7.47;3.30;;;6.80;88.10;;;;;;4966521;28;20107;-81
2021/01/20 11:02:08;;;;;;;6.00;3.30;;;6.90;83.90;;;;;;4968566;29;20059;-80
2021/01/20 11:04:35;;;;;;;7.88;3.92;;;6.90;84.40;;;;;;4970301;29;20082;-82
2021/01/20 11:07:01;;;;;;;5.63;2.92;;;7.10;85.20;;;;;;4951654;29;20082;-80
2021/01/20 11:09:30;;;;;;;6.95;3.47;;;7.20;82.60;;;;;;4965532;29;20187;-81
2021/01/20 11:11:57;;;;;;;5.30;2.88;;;7.10;80.50;;;;;;4968002;29;20063;-81
2021/01/20 11:14:23;;;;;;;6.30;3.25;;;7.20;80.30;;;;;;4947167;29;20063;-82
2021/01/20 11:16:53;;;;;;;8.82;4.45;;;7.30;81.00;;;;;;4963797;29;20054;-81
2021/01/20 11:19:20;;;;;;;7.80;4.20;;;7.30;82.10;;;;;;4967906;29;20060;-81
2021/01/20 11:21:46;;;;;;;10.77;6.50;;;7.30;81.90;;;;;;4966593;29;20194;-82
2021/01/20 11:24:17;;;;;;;13.57;7.60;;;7.40;84.60;;;;;;4969545;28;20047;-82
2021/01/20 11:26:45;;;;;;;14.60;8.73;;;7.50;85.10;;;;;;4950594;29;20082;-81
2021/01/20 11:29:12;;;;;;;14.60;8.10;;;7.50;85.30;;;;;;4964120;29;20058;-82
2021/01/20 11:31:39;;;;;;;14.43;8.20;;;7.40;85.60;;;;;;4963592;29;20134;-82
2021/01/20 11:34:07;;;;;;;13.50;8.13;;;7.40;86.10;;;;;;4933450;29;20047;-82
2021/01/20 11:36:34;;;;;;;11.85;6.70;;;7.20;85.10;;;;;;4965553;29;20083;-82
2021/01/20 11:39:00;;;;;;;8.27;4.18;;;7.00;86.00;;;;;;4963328;29;20122;-81
2021/01/20 11:41:27;;;;;;;6.03;2.38;;;6.80;82.50;;;;;;4960736;28;20082;-80
2021/01/20 11:43:54;;;;;;;5.05;2.17;;;6.80;79.00;;;;;;4959600;29;20679;-81
2021/01/20 11:46:20;;;;;;;5.00;2.55;;;6.90;78.30;;;;;;4951464;29;20118;-82
2021/01/20 11:48:48;;;;;;;7.03;2.78;;;7.00;78.30;;;;;;4929301;29;20063;-82
2021/01/20 11:51:16;;;;;;;5.70;2.10;;;7.10;77.50;;;;;;4949194;29;20047;-82
2021/01/20 11:53:42;;;;;;;7.90;3.40;;;7.10;77.30;;;;;;4948678;29;20484;-81
2021/01/20 11:56:09;;;;;;;5.72;2.22;;;7.40;76.70;;;;;;4953191;29;20103;-82
2021/01/20 11:58:35;;;;;;;3.70;1.80;;;7.40;76.10;;;;;;4954039;29;20052;-83
2021/01/20 12:01:03;;;;;;;4.65;2.17;;;7.50;73.40;;;;;;4954548;28;20084;-83
2021/01/20 12:03:29;;;;;;;4.40;2.47;;;7.60;74.00;;;;;;4958565;29;20055;-83
2021/01/20 12:05:56;;;;;;;6.25;2.83;;;7.70;72.00;;;;;;4956890;28;20056;-82
2021/01/20 12:08:24;;;;;;;8.15;3.53;;;7.80;74.20;;;;;;4938044;29;20094;-83
2021/01/20 12:10:51;;;;;;;7.30;3.60;;;8.00;75.60;;;;;;4939788;29;20056;-82
2021/01/20 12:13:19;;;;;;;6.15;3.65;;;8.10;75.40;;;;;;4970432;29;20051;-82
2021/01/20 12:15:45;;;;;;;7.78;3.60;;;8.20;71.70;;;;;;4973971;29;20497;-83
2021/01/20 12:18:12;;;;;;;6.47;3.63;;;8.30;71.10;;;;;;4974705;29;20075;-81
2021/01/20 12:20:39;;;;;;;7.30;4.00;;;8.20;71.20;;;;;;4929600;29;20047;-82
2021/01/20 12:23:05;;;;;;;8.10;3.95;;;8.30;71.50;;;;;;4978407;29;20071;-82
2021/01/20 12:25:33;;;;;;;7.57;3.90;;;8.30;73.00;;;;;;4960096;29;20074;-82
2021/01/20 12:27:59;;;;;;;7.53;4.07;;;8.30;73.20;;;;;;4959791;29;20078;-82
2021/01/20 12:30:26;;;;;;;9.05;4.28;;;8.40;73.10;;;;;;4977954;29;20063;-82
2021/01/20 12:32:53;;;;;;;7.45;4.07;;;8.40;73.50;;;;;;4975499;28;20087;-82
2021/01/20 12:35:20;;;;;;;10.63;4.40;;;8.40;73.90;;;;;;4959010;29;20079;-82
2021/01/20 12:37:48;;;;;;;8.65;4.18;;;8.40;74.50;;;;;;4974683;29;20107;-82
2021/01/20 12:40:15;;;;;;;9.45;4.85;;;8.40;75.00;;;;;;4978583;29;20063;-82
2021/01/20 12:42:42;;;;;;;12.02;4.90;;;8.30;75.60;;;;;;4973634;29;20085;-82
2021/01/20 12:45:11;;;;;;;9.60;5.30;;;8.20;75.90;;;;;;4971532;29;20067;-82
2021/01/20 12:47:37;;;;;;;10.20;5.30;;;8.20;75.50;;;;;;4974761;29;20051;-82
2021/01/20 12:50:06;;;;;;;9.25;5.28;;;8.20;76.00;;;;;;4956723;29;20394;-81
2021/01/20 12:52:33;;;;;;;10.77;5.38;;;8.10;76.30;;;;;;4951141;29;20174;-81
2021/01/20 12:55:00;;;;;;;9.77;5.47;;;8.10;76.60;;;;;;4957163;29;20047;-81
2021/01/20 12:57:27;;;;;;;24.90;12.32;;;8.10;77.30;;;;;;4937736;29;20103;-82
2021/01/20 12:59:54;;;;;;;9.45;5.30;;;8.10;77.70;;;;;;4953453;29;20131;-82
2021/01/20 13:02:21;;;;;;;10.52;5.28;;;8.10;77.80;;;;;;4953533;29;20472;-81
2021/01/20 13:04:48;;;;;;;9.07;5.10;;;8.10;78.00;;;;;;4953220;29;20110;-82
2021/01/20 13:07:14;;;;;;;11.85;5.78;;;8.10;78.40;;;;;;4955986;29;20052;-82
2021/01/20 13:09:42;;;;;;;11.88;5.75;;;8.10;79.00;;;;;;4974544;29;20561;-82
2021/01/20 13:12:09;;;;;;;11.13;5.07;;;8.10;79.30;;;;;;4955668;29;20055;-82
2021/01/20 13:14:35;;;;;;;9.05;5.18;;;8.00;79.90;;;;;;4954751;29;20570;-80
2021/01/20 13:17:03;;;;;;;8.32;4.57;;;8.10;80.20;;;;;;4957967;29;20070;-81
2021/01/20 13:19:30;;;;;;;12.90;5.25;;;8.10;79.40;;;;;;4973909;29;20055;-81
2021/01/20 13:21:56;;;;;;;11.07;4.32;;;8.10;78.30;;;;;;4970462;28;20082;-82
2021/01/20 13:24:29;;;;;;;10.88;4.82;;;8.20;78.50;;;;;;4971518;29;20059;-82